createdAt,value
2017-11-22T00:00:55.126Z,8.10
2017-11-22T00:03:23.227Z,8.00
2017-11-22T00:05:52.069Z,8.00
2017-11-22T00:08:20.155Z,8.00
2017-11-22T00:10:48.238Z,8.00
2017-11-22T00:13:16.320Z,8.00
2017-11-22T00:15:44.405Z,8.00
2017-11-22T00:18:13.292Z,8.00
2017-11-22T00:20:41.369Z,8.00
2017-11-22T00:23:09.444Z,8.00
2017-11-22T00:25:37.516Z,8.00
2017-11-22T00:28:06.353Z,8.00
2017-11-22T00:30:35.197Z,8.00
2017-11-22T00:33:04.048Z,8.00
2017-11-22T00:35:32.148Z,8.00
2017-11-22T00:38:00.225Z,7.90
2017-11-22T00:40:28.309Z,8.00
2017-11-22T00:42:57.162Z,7.90
2017-11-22T00:45:25.265Z,7.90
2017-11-22T00:47:54.104Z,7.70
2017-11-22T00:50:22.201Z,7.80
2017-11-22T00:52:50.269Z,7.80
2017-11-22T00:55:18.357Z,7.80
2017-11-22T00:57:46.434Z,7.70
2017-11-22T01:00:14.512Z,7.70
2017-11-22T01:02:42.589Z,7.70
2017-11-22T01:05:11.737Z,7.70
2017-11-22T01:07:39.820Z,7.70
2017-11-22T01:10:07.897Z,7.70
2017-11-22T01:12:35.993Z,7.70
2017-11-22T01:15:04.101Z,7.70
2017-11-22T01:17:32.197Z,7.70
2017-11-22T01:20:00.272Z,7.70
2017-11-22T01:22:29.116Z,7.70
2017-11-22T01:24:57.289Z,7.70
2017-11-22T01:27:26.149Z,7.60
2017-11-22T01:29:54.232Z,7.60
2017-11-22T01:32:22.304Z,7.50
2017-11-22T01:34:50.389Z,7.50
2017-11-22T01:37:18.476Z,7.50
2017-11-22T01:39:46.573Z,7.50
2017-11-22T01:42:14.645Z,7.60
2017-11-22T01:44:42.751Z,7.60
2017-11-22T01:47:10.829Z,7.50
2017-11-22T01:49:40.233Z,7.60
2017-11-22T01:52:08.420Z,7.60
2017-11-22T01:54:36.504Z,7.50
2017-11-22T01:57:04.573Z,7.50
2017-11-22T01:59:32.652Z,7.50
2017-11-22T02:02:01.509Z,7.50
2017-11-22T02:04:29.604Z,7.50
2017-11-22T02:06:57.680Z,7.50
2017-11-22T02:09:25.760Z,7.60
2017-11-22T02:11:54.632Z,7.50
2017-11-22T02:14:22.746Z,7.50
2017-11-22T02:16:50.845Z,7.50
2017-11-22T02:19:20.278Z,7.50
2017-11-22T02:21:48.503Z,7.50
2017-11-22T02:24:16.577Z,7.50
2017-11-22T02:26:44.664Z,7.50
2017-11-22T02:29:12.744Z,7.50
2017-11-22T02:31:40.828Z,7.50
2017-11-22T02:34:08.895Z,7.50
2017-11-22T02:36:36.976Z,7.50
2017-11-22T02:39:05.051Z,7.50
2017-11-22T02:41:33.152Z,7.50
2017-11-22T02:44:01.213Z,7.50
2017-11-22T02:46:29.297Z,7.50
2017-11-22T02:48:58.149Z,7.50
2017-11-22T02:51:26.216Z,7.50
2017-11-22T02:53:54.300Z,7.60
2017-11-22T02:56:22.375Z,7.50
2017-11-22T02:58:50.461Z,7.50
2017-11-22T03:01:18.560Z,7.50
2017-11-22T03:03:47.456Z,7.50
2017-11-22T03:06:16.300Z,7.60
2017-11-22T03:08:44.392Z,7.60
2017-11-22T03:11:12.464Z,7.50
2017-11-22T03:13:40.545Z,7.50
2017-11-22T03:16:09.385Z,7.40
2017-11-22T03:18:37.500Z,7.40
2017-11-22T03:21:06.381Z,7.40
2017-11-22T03:23:34.481Z,7.40
2017-11-22T03:26:03.325Z,7.30
2017-11-22T03:28:31.425Z,7.40
2017-11-22T03:30:59.505Z,7.40
2017-11-22T03:33:27.573Z,7.40
2017-11-22T03:35:55.668Z,7.40
2017-11-22T03:38:24.516Z,7.40
2017-11-22T03:40:52.591Z,7.40
2017-11-22T03:43:20.664Z,7.40
2017-11-22T03:45:48.748Z,7.40
2017-11-22T03:48:16.849Z,7.40
2017-11-22T03:50:51.354Z,7.30
2017-11-22T03:53:24.948Z,7.30
2017-11-22T03:55:53.034Z,7.30
2017-11-22T03:58:21.880Z,7.40
2017-11-22T04:00:49.960Z,7.40
2017-11-22T04:03:18.041Z,7.40
2017-11-22T04:05:51.767Z,7.30
2017-11-22T04:08:19.842Z,7.30
2017-11-22T04:10:47.925Z,7.30
2017-11-22T04:13:16.781Z,7.40
2017-11-22T04:15:44.862Z,7.40
2017-11-22T04:18:12.945Z,7.50
2017-11-22T04:20:44.997Z,7.50
2017-11-22T04:23:13.075Z,7.50
2017-11-22T04:25:41.181Z,7.50
2017-11-22T04:28:10.026Z,7.50
2017-11-22T04:30:38.094Z,7.40
2017-11-22T04:33:06.182Z,7.50
2017-11-22T04:35:34.258Z,7.40
2017-11-22T04:38:02.340Z,7.50
2017-11-22T04:40:31.176Z,7.40
2017-11-22T04:42:59.252Z,7.40
2017-11-22T04:45:27.339Z,7.40
2017-11-22T04:47:55.416Z,7.40
2017-11-22T04:50:23.489Z,7.40
2017-11-22T04:52:51.641Z,7.40
2017-11-22T04:55:19.722Z,7.40
2017-11-22T04:57:47.789Z,7.40
2017-11-22T05:00:15.875Z,7.40
2017-11-22T05:02:43.957Z,7.40
2017-11-22T05:05:12.045Z,7.40
2017-11-22T05:07:40.112Z,7.40
2017-11-22T05:10:08.206Z,7.40
2017-11-22T05:12:37.037Z,7.40
2017-11-22T05:15:05.116Z,7.40
2017-11-22T05:17:33.248Z,7.40
2017-11-22T05:20:02.098Z,7.40
2017-11-22T05:22:30.192Z,7.40
2017-11-22T05:24:58.315Z,7.40
2017-11-22T05:27:26.389Z,7.40
2017-11-22T05:29:54.477Z,7.30
2017-11-22T05:32:22.545Z,7.30
2017-11-22T05:34:50.634Z,7.30
2017-11-22T05:37:18.706Z,7.20
2017-11-22T05:39:46.830Z,7.10
2017-11-22T05:42:15.682Z,6.90
2017-11-22T05:44:43.756Z,6.90
2017-11-22T05:47:11.825Z,6.90
2017-11-22T05:49:41.810Z,6.80
2017-11-22T05:52:10.033Z,6.80
2017-11-22T05:54:38.101Z,6.80
2017-11-22T05:57:06.189Z,6.80
2017-11-22T05:59:35.120Z,6.70
2017-11-22T06:02:03.187Z,6.70
2017-11-22T06:04:32.019Z,6.60
2017-11-22T06:07:00.101Z,6.60
2017-11-22T06:09:28.173Z,6.60
2017-11-22T06:11:56.252Z,6.60
2017-11-22T06:14:25.101Z,6.50
2017-11-22T06:16:53.256Z,6.50
2017-11-22T06:19:21.358Z,6.40
2017-11-22T06:21:49.454Z,6.50
2017-11-22T06:24:18.410Z,6.50
2017-11-22T06:26:46.497Z,6.50
2017-11-22T06:29:14.640Z,6.40
2017-11-22T06:31:42.713Z,6.40
2017-11-22T06:34:10.788Z,6.50
2017-11-22T06:36:38.871Z,6.40
2017-11-22T06:42:03.847Z,6.50
2017-11-22T06:44:32.754Z,6.50
2017-11-22T06:47:00.850Z,6.50
2017-11-22T06:49:28.929Z,6.50
2017-11-22T06:51:57.009Z,6.50
2017-11-22T06:54:25.093Z,6.50
2017-11-22T06:56:53.245Z,6.50
2017-11-22T06:59:21.336Z,6.50
2017-11-22T07:01:53.396Z,6.50
2017-11-22T07:04:21.481Z,6.50
2017-11-22T07:06:49.554Z,6.60
2017-11-22T07:09:17.642Z,6.60
2017-11-22T07:11:45.712Z,6.60
2017-11-22T07:14:13.795Z,6.70
2017-11-22T07:16:48.225Z,6.70
2017-11-22T07:19:17.788Z,6.70
2017-11-22T07:21:45.861Z,6.70
2017-11-22T07:24:14.754Z,6.70
2017-11-22T07:26:42.828Z,6.70
2017-11-22T07:29:12.142Z,6.80
2017-11-22T07:31:40.233Z,6.80
2017-11-22T07:34:09.090Z,6.80
2017-11-22T07:36:42.660Z,6.80
2017-11-22T07:39:10.867Z,6.90
2017-11-22T07:41:38.937Z,6.80
2017-11-22T07:44:07.017Z,6.90
2017-11-22T07:46:35.925Z,6.90
2017-11-22T07:49:04.005Z,6.90
2017-11-22T07:51:38.350Z,6.90
2017-11-22T07:54:06.436Z,6.90
2017-11-22T07:56:34.508Z,6.90
2017-11-22T07:59:06.149Z,6.90
2017-11-22T08:01:34.257Z,6.90
2017-11-22T08:04:08.061Z,6.90
2017-11-22T08:06:36.153Z,6.80
2017-11-22T08:09:04.253Z,6.80
2017-11-22T08:11:33.107Z,6.70
2017-11-22T08:14:01.179Z,6.70
2017-11-22T08:16:29.253Z,6.70
2017-11-22T08:18:57.409Z,6.80
2017-11-22T08:21:25.513Z,6.80
2017-11-22T08:23:53.585Z,6.90
2017-11-22T08:26:21.664Z,6.90
2017-11-22T08:28:49.760Z,6.90
2017-11-22T08:31:18.601Z,7.00
2017-11-22T08:33:46.680Z,6.90
2017-11-22T08:36:14.815Z,7.00
2017-11-22T08:38:42.900Z,7.00
2017-11-22T08:41:10.988Z,6.90
2017-11-22T08:43:43.838Z,6.90
2017-11-22T08:46:11.928Z,6.90
2017-11-22T08:48:40.048Z,6.90
2017-11-22T08:51:08.142Z,6.90
2017-11-22T08:53:37.004Z,6.90
2017-11-22T08:56:10.626Z,6.90
2017-11-22T08:58:39.465Z,7.00
2017-11-22T09:01:07.549Z,7.00
2017-11-22T09:03:41.812Z,7.10
2017-11-22T09:06:16.159Z,7.10
2017-11-22T09:08:44.639Z,7.10
2017-11-22T09:11:12.730Z,7.20
2017-11-22T09:13:40.808Z,7.20
2017-11-22T09:16:08.887Z,7.30
2017-11-22T09:18:38.917Z,7.30
2017-11-22T09:21:09.906Z,7.40
2017-11-22T09:23:37.984Z,7.40
2017-11-22T09:26:06.078Z,7.40
2017-11-22T09:28:34.215Z,7.50
2017-11-22T09:31:07.844Z,7.50
2017-11-22T09:33:35.933Z,7.60
2017-11-22T09:36:04.025Z,7.70
2017-11-22T09:38:32.109Z,7.80
2017-11-22T09:41:00.186Z,7.80
2017-11-22T09:43:29.038Z,7.90
2017-11-22T09:45:57.137Z,7.90
2017-11-22T09:48:25.212Z,8.00
2017-11-22T09:50:53.297Z,8.10
2017-11-22T09:53:22.172Z,8.00
2017-11-22T09:55:50.340Z,8.00
2017-11-22T09:58:18.445Z,8.00
2017-11-22T10:00:46.551Z,8.00
2017-11-22T10:03:14.648Z,8.00
2017-11-22T10:05:44.703Z,8.00
2017-11-22T10:08:13.584Z,8.10
2017-11-22T10:10:42.461Z,8.10
2017-11-22T10:13:10.549Z,8.10
2017-11-22T10:15:41.381Z,8.10
2017-11-22T10:18:10.266Z,8.00
2017-11-22T10:20:43.870Z,8.00
2017-11-22T10:23:17.508Z,8.10
2017-11-22T10:25:45.602Z,8.00
2017-11-22T10:28:13.687Z,8.10
2017-11-22T10:30:42.703Z,8.10
2017-11-22T10:33:14.678Z,8.30
2017-11-22T10:35:42.796Z,8.20
2017-11-22T10:38:10.893Z,8.20
2017-11-22T10:40:39.029Z,8.30
2017-11-22T10:43:07.118Z,8.40
2017-11-22T10:45:35.221Z,8.50
2017-11-22T10:48:03.361Z,8.60
2017-11-22T10:50:31.471Z,8.60
2017-11-22T10:52:59.573Z,8.60
2017-11-22T10:55:28.430Z,8.70
2017-11-22T10:57:56.536Z,8.70
2017-11-22T11:00:25.444Z,8.70
2017-11-22T11:02:53.552Z,8.70
2017-11-22T11:05:21.643Z,8.80
2017-11-22T11:07:49.765Z,8.90
2017-11-22T11:10:17.873Z,9.00
2017-11-22T11:12:45.987Z,9.00
2017-11-22T11:15:14.850Z,9.20
2017-11-22T11:17:42.969Z,9.20
2017-11-22T11:20:11.078Z,9.30
2017-11-22T11:22:39.206Z,9.40
2017-11-22T11:25:08.096Z,9.50
2017-11-22T11:27:37.000Z,9.50
2017-11-22T11:30:05.111Z,9.50
2017-11-22T11:32:33.214Z,9.70
2017-11-22T11:35:02.386Z,9.70
2017-11-22T11:37:30.508Z,9.70
2017-11-22T11:39:59.368Z,9.80
2017-11-22T11:42:27.466Z,9.80
2017-11-22T11:44:56.352Z,9.90
2017-11-22T11:47:24.493Z,9.90
2017-11-22T11:49:52.594Z,9.90
2017-11-22T11:52:20.733Z,10.00
2017-11-22T11:54:48.951Z,10.10
2017-11-22T11:57:18.248Z,9.90
2017-11-22T11:59:47.123Z,10.00
2017-11-22T12:02:16.028Z,10.00
2017-11-22T12:04:44.910Z,10.10
2017-11-22T12:07:13.253Z,10.10
2017-11-22T12:09:41.403Z,10.20
2017-11-22T12:12:14.071Z,10.30
2017-11-22T12:14:42.190Z,10.40
2017-11-22T12:17:10.304Z,10.40
2017-11-22T12:19:39.215Z,10.40
2017-11-22T12:22:14.004Z,10.40
2017-11-22T12:24:42.088Z,10.40
2017-11-22T12:27:10.165Z,10.50
2017-11-22T12:29:39.029Z,10.70
2017-11-22T12:32:07.108Z,10.70
2017-11-22T12:34:35.270Z,10.80
2017-11-22T12:37:03.373Z,10.90
2017-11-22T12:39:32.262Z,10.90
2017-11-22T12:42:01.228Z,11.00
2017-11-22T12:44:29.317Z,10.90
2017-11-22T12:46:58.229Z,11.00
2017-11-22T12:49:27.105Z,11.10
2017-11-22T12:51:55.255Z,11.00
2017-11-22T12:54:23.416Z,11.10
2017-11-22T12:56:51.514Z,11.10
2017-11-22T12:59:19.663Z,11.10
2017-11-22T13:01:47.764Z,11.10
2017-11-22T13:04:15.873Z,11.10
2017-11-22T13:06:44.084Z,11.10
2017-11-22T13:09:12.190Z,11.10
2017-11-22T13:11:42.228Z,11.20
2017-11-22T13:14:11.100Z,11.10
2017-11-22T13:16:39.244Z,11.10
2017-11-22T13:19:07.364Z,11.20
2017-11-22T13:21:36.245Z,11.10
2017-11-22T13:24:05.141Z,11.10
2017-11-22T13:26:34.006Z,11.10
2017-11-22T13:29:02.173Z,11.10
2017-11-22T13:31:30.259Z,11.10
2017-11-22T13:33:58.383Z,11.10
2017-11-22T13:36:26.481Z,11.10
2017-11-22T13:38:54.612Z,11.10
2017-11-22T13:41:31.220Z,11.10
2017-11-22T13:43:59.411Z,11.10
2017-11-22T13:46:27.525Z,11.20
2017-11-22T13:48:56.391Z,11.20
2017-11-22T13:51:24.520Z,11.20
2017-11-22T13:53:52.649Z,11.20
2017-11-22T13:56:20.820Z,11.20
2017-11-22T13:58:48.959Z,11.20
2017-11-22T14:01:17.148Z,11.20
2017-11-22T14:03:45.328Z,11.10
2017-11-22T14:06:14.231Z,11.10
2017-11-22T14:08:42.322Z,11.10
2017-11-22T14:11:11.182Z,11.10
2017-11-22T14:13:39.278Z,11.10
2017-11-22T14:16:07.376Z,11.20
2017-11-22T14:18:35.474Z,11.20
2017-11-22T14:21:03.586Z,11.10
2017-11-22T14:23:31.694Z,11.20
2017-11-22T14:25:59.841Z,11.20
2017-11-22T14:28:27.925Z,11.10
2017-11-22T14:30:56.861Z,11.10
2017-11-22T14:33:25.037Z,11.00
2017-11-22T14:35:53.180Z,11.00
2017-11-22T14:38:21.343Z,11.00
2017-11-22T14:40:49.497Z,10.90
2017-11-22T14:43:17.644Z,10.80
2017-11-22T14:45:45.763Z,10.80
2017-11-22T14:48:13.952Z,10.70
2017-11-22T14:50:42.112Z,10.70
2017-11-22T14:53:11.048Z,10.60
2017-11-22T14:55:39.173Z,10.60
2017-11-22T14:58:08.047Z,10.50
2017-11-22T15:00:36.210Z,10.50
2017-11-22T15:03:04.360Z,10.50
2017-11-22T15:05:32.504Z,10.50
2017-11-22T15:08:00.716Z,10.40
2017-11-22T15:10:28.814Z,10.40
2017-11-22T15:12:57.747Z,10.30
2017-11-22T15:15:25.909Z,10.30
2017-11-22T15:17:54.052Z,10.30
2017-11-22T15:20:22.977Z,10.20
2017-11-22T15:22:51.146Z,10.20
2017-11-22T15:25:19.343Z,10.20
2017-11-22T15:27:47.515Z,10.10
2017-11-22T15:30:15.674Z,10.00
2017-11-22T15:32:43.840Z,10.00
2017-11-22T15:35:12.021Z,9.90
2017-11-22T15:37:40.161Z,9.80
2017-11-22T15:40:08.273Z,9.80
2017-11-22T15:42:37.202Z,9.80
2017-11-22T15:45:05.324Z,9.80
2017-11-22T15:47:34.237Z,9.70
2017-11-22T15:50:02.365Z,9.70
2017-11-22T15:52:30.561Z,9.70
2017-11-22T15:54:58.688Z,9.60
2017-11-22T15:57:26.883Z,9.70
2017-11-22T15:59:55.060Z,9.50
2017-11-22T16:02:23.273Z,9.50
2017-11-22T16:04:52.987Z,9.40
2017-11-22T16:07:21.120Z,9.40
2017-11-22T16:09:49.218Z,9.40
2017-11-22T16:12:17.370Z,9.60
2017-11-22T16:14:45.507Z,9.40
2017-11-22T16:17:15.884Z,9.30
2017-11-22T16:19:44.834Z,9.20
2017-11-22T16:22:13.009Z,9.20
2017-11-22T16:24:41.185Z,9.10
2017-11-22T16:27:09.325Z,9.10
2017-11-22T16:29:37.633Z,9.00
2017-11-22T16:32:05.771Z,9.00
2017-11-22T16:34:33.944Z,8.90
2017-11-22T16:37:03.173Z,8.90
2017-11-22T16:39:31.405Z,8.80
2017-11-22T16:42:00.324Z,8.80
2017-11-22T16:44:28.416Z,8.80
2017-11-22T16:46:56.550Z,8.80
2017-11-22T16:49:25.392Z,8.80
2017-11-22T16:51:53.474Z,8.80
2017-11-22T16:54:21.595Z,8.80
2017-11-22T16:56:50.532Z,8.70
2017-11-22T16:59:18.613Z,8.70
2017-11-22T17:01:46.697Z,8.60
2017-11-22T17:04:14.819Z,8.60
2017-11-22T17:06:43.681Z,8.50
2017-11-22T17:09:12.553Z,8.50
2017-11-22T17:11:40.866Z,8.50
2017-11-22T17:14:08.956Z,8.50
2017-11-22T17:16:37.075Z,8.40
2017-11-22T17:19:05.511Z,8.40
2017-11-22T17:21:33.572Z,8.40
2017-11-22T17:24:01.703Z,8.40
2017-11-22T17:26:32.114Z,8.30
2017-11-22T17:29:00.200Z,8.20
2017-11-22T17:31:28.327Z,8.20
2017-11-22T17:33:56.447Z,8.20
2017-11-22T17:36:24.574Z,8.10
2017-11-22T17:38:53.492Z,8.00
2017-11-22T17:41:21.619Z,8.00
2017-11-22T17:43:49.699Z,7.90
2017-11-22T17:46:18.694Z,7.90
2017-11-22T17:48:46.790Z,7.90
2017-11-22T17:51:14.975Z,7.90
2017-11-22T17:53:43.139Z,7.90
2017-11-22T17:56:11.314Z,7.90
2017-11-22T17:58:39.454Z,7.90
2017-11-22T18:01:07.559Z,7.90
2017-11-22T18:03:35.718Z,7.80
2017-11-22T18:06:03.871Z,7.80
2017-11-22T18:08:32.803Z,7.60
2017-11-22T18:11:00.924Z,7.60
2017-11-22T18:13:29.006Z,7.70
2017-11-22T18:15:57.898Z,7.70
2017-11-22T18:18:26.787Z,7.70
2017-11-22T18:20:55.641Z,7.70
2017-11-22T18:23:23.748Z,7.70
2017-11-22T18:25:52.651Z,7.60
2017-11-22T18:28:21.542Z,7.60
2017-11-22T18:30:50.384Z,7.60
2017-11-22T18:33:18.477Z,7.60
2017-11-22T18:35:46.606Z,7.50
2017-11-22T18:38:14.747Z,7.50
2017-11-22T18:40:43.640Z,7.50
2017-11-22T18:43:12.503Z,7.40
2017-11-22T18:45:40.619Z,7.40
2017-11-22T18:48:08.747Z,7.40
2017-11-22T18:50:36.833Z,7.40
2017-11-22T18:53:04.952Z,7.40
2017-11-22T18:55:33.075Z,7.40
2017-11-22T18:58:01.933Z,7.40
2017-11-22T19:00:30.037Z,7.30
2017-11-22T19:02:58.154Z,7.40
2017-11-22T19:05:26.326Z,7.30
2017-11-22T19:07:54.465Z,7.40
2017-11-22T19:10:22.618Z,7.30
2017-11-22T19:12:51.095Z,7.30
2017-11-22T19:15:19.256Z,7.30
2017-11-22T19:17:47.388Z,7.30
2017-11-22T19:20:15.508Z,7.30
2017-11-22T19:22:43.649Z,7.30
2017-11-22T19:25:11.824Z,7.30
2017-11-22T19:27:39.972Z,7.30
2017-11-22T19:30:08.916Z,7.40
2017-11-22T19:32:37.042Z,7.30
2017-11-22T19:35:05.906Z,7.30
2017-11-22T19:37:34.819Z,7.40
2017-11-22T19:40:03.728Z,7.40
2017-11-22T19:42:31.874Z,7.40
2017-11-22T19:45:00.026Z,7.40
2017-11-22T19:47:28.154Z,7.40
2017-11-22T19:49:56.248Z,7.40
2017-11-22T19:52:24.393Z,7.40
2017-11-22T19:54:52.537Z,7.40
2017-11-22T19:57:20.669Z,7.40
2017-11-22T19:59:48.808Z,7.40
2017-11-22T20:02:16.956Z,7.40
2017-11-22T20:04:45.024Z,7.40
2017-11-22T20:07:31.062Z,7.40
2017-11-22T20:09:59.188Z,7.40
2017-11-22T20:12:27.283Z,7.40
2017-11-22T20:14:56.196Z,7.40
2017-11-22T20:17:24.345Z,7.40
2017-11-22T20:19:53.264Z,7.30
2017-11-22T20:22:21.394Z,7.30
2017-11-22T20:24:49.495Z,7.30
2017-11-22T20:27:18.386Z,7.20
2017-11-22T20:29:47.285Z,7.20
2017-11-22T20:32:16.188Z,7.20
2017-11-22T20:34:44.313Z,7.20
2017-11-22T20:37:12.430Z,7.10
2017-11-22T20:39:40.555Z,7.20
2017-11-22T20:42:08.761Z,7.10
2017-11-22T20:44:37.672Z,7.10
2017-11-22T20:47:05.806Z,7.10
2017-11-22T20:49:33.943Z,7.10
2017-11-22T20:52:02.093Z,7.00
2017-11-22T20:54:30.232Z,6.90
2017-11-22T20:56:58.355Z,6.90
2017-11-22T20:59:26.484Z,6.80
2017-11-22T21:01:54.608Z,6.80
2017-11-22T21:04:22.728Z,6.80
2017-11-22T21:06:50.864Z,6.70
2017-11-22T21:09:19.033Z,6.70
2017-11-22T21:11:47.175Z,6.70
2017-11-22T21:14:15.316Z,6.70
2017-11-22T21:16:43.446Z,6.60
2017-11-22T21:19:11.582Z,6.60
2017-11-22T21:21:40.427Z,6.50
2017-11-22T21:24:08.559Z,6.50
2017-11-22T21:26:36.678Z,6.50
2017-11-22T21:29:04.774Z,6.50
2017-11-22T21:31:32.907Z,6.50
2017-11-22T21:34:01.052Z,6.50
2017-11-22T21:36:29.145Z,6.60
2017-11-22T21:39:27.680Z,6.60
2017-11-22T21:42:01.906Z,6.60
2017-11-22T21:44:30.109Z,6.50
2017-11-22T21:46:58.197Z,6.60
2017-11-22T21:49:26.352Z,6.50
2017-11-22T21:51:54.475Z,6.60
2017-11-22T21:54:22.631Z,6.50
2017-11-22T21:56:50.761Z,6.50
2017-11-22T21:59:19.650Z,6.60
2017-11-22T22:01:48.570Z,6.60
2017-11-22T22:04:17.411Z,6.60
2017-11-22T22:06:45.493Z,6.50
2017-11-22T22:09:13.609Z,6.60
2017-11-22T22:11:41.761Z,6.60
2017-11-22T22:14:10.640Z,6.60
2017-11-22T22:16:39.495Z,6.60
2017-11-22T22:19:07.571Z,6.60
2017-11-22T22:21:35.761Z,6.60
2017-11-22T22:24:03.838Z,6.50
2017-11-22T22:26:31.969Z,6.50
2017-11-22T22:29:00.086Z,6.50
2017-11-22T22:31:28.211Z,6.40
2017-11-22T22:33:56.371Z,6.40
2017-11-22T22:36:24.489Z,6.30
2017-11-22T22:38:52.561Z,6.30
2017-11-22T22:41:20.683Z,6.20
2017-11-22T22:43:48.808Z,6.20
2017-11-22T22:46:16.921Z,6.20
2017-11-22T22:48:45.054Z,6.20
2017-11-22T22:51:13.173Z,6.20
2017-11-22T22:53:41.308Z,6.10
2017-11-22T22:56:09.424Z,6.10
2017-11-22T22:58:37.546Z,6.00
2017-11-22T23:01:05.614Z,6.00
2017-11-22T23:03:33.708Z,6.00
2017-11-22T23:06:01.779Z,6.00
2017-11-22T23:08:29.852Z,6.00
2017-11-22T23:10:58.419Z,5.90
2017-11-22T23:13:26.505Z,5.90
2017-11-22T23:15:54.582Z,5.90
2017-11-22T23:18:22.712Z,5.90
2017-11-22T23:20:50.893Z,6.00
2017-11-22T23:23:18.986Z,6.00
2017-11-22T23:25:47.079Z,6.00
2017-11-22T23:28:15.203Z,6.10
2017-11-22T23:30:43.281Z,6.00
2017-11-22T23:33:11.349Z,6.00
2017-11-22T23:35:39.432Z,6.00
2017-11-22T23:38:07.546Z,5.90
2017-11-22T23:40:36.417Z,5.80
2017-11-22T23:43:04.576Z,5.80
2017-11-22T23:45:32.667Z,5.80
2017-11-22T23:48:00.733Z,5.80
2017-11-22T23:50:28.813Z,5.80
2017-11-22T23:52:56.885Z,5.80
2017-11-22T23:55:24.982Z,5.80
2017-11-22T23:57:53.818Z,5.80
